Time;durP1;ratioP1;P1;durP2;ratioP2;P2;SDS_P1;SDS_P2;PMS_P1;PMS_P2;Temp;Humidity;BMP_temperature;BMP_pressure;BME280_temperature;BME280_humidity;BME280_pressure;Samples;Min_cycle;Max_cycle;Signal;HPM_P1;HPM_P2
2023/05/12 00:01:11;;;;;;;6.03;3.72;;;;;;;;;;5032976;28;20105;-77
2023/05/12 00:03:37;;;;;;;6.22;4.10;;;;;;;;;;5015012;28;20037;-77
2023/05/12 00:06:03;;;;;;;5.28;4.07;;;;;;;;;;5030884;28;21011;-78
2023/05/12 00:08:29;;;;;;;6.13;3.92;;;;;;;;;;5026380;28;20053;-77
2023/05/12 00:10:55;;;;;;;5.63;3.75;;;;;;;;;;5034835;28;20028;-77
2023/05/12 00:13:22;;;;;;;6.22;4.35;;;;;;;;;;5034595;28;20025;-78
2023/05/12 00:15:51;;;;;;;6.68;4.53;;;;;;;;;;5032266;28;20156;-76
2023/05/12 00:18:16;;;;;;;6.32;4.65;;;;;;;;;;5034642;28;20421;-78
2023/05/12 00:20:42;;;;;;;6.65;4.72;;;;;;;;;;5032018;28;20029;-77
2023/05/12 00:23:07;;;;;;;6.60;4.65;;;;;;;;;;5033993;28;20076;-78
2023/05/12 00:25:33;;;;;;;6.38;4.72;;;;;;;;;;5034462;28;20022;-77
2023/05/12 00:27:58;;;;;;;10.50;4.80;;;;;;;;;;5015408;28;20440;-77
2023/05/12 00:30:23;;;;;;;7.65;4.78;;;;;;;;;;5025023;28;20116;-77
2023/05/12 00:32:49;;;;;;;7.30;5.25;;;;;;;;;;5010983;28;20025;-77
2023/05/12 00:35:15;;;;;;;8.13;4.47;;;;;;;;;;5003274;28;20121;-77
2023/05/12 00:37:41;;;;;;;6.78;4.95;;;;;;;;;;5028105;28;20030;-77
2023/05/12 00:40:07;;;;;;;6.57;4.65;;;;;;;;;;5006305;28;20084;-76
2023/05/12 00:42:34;;;;;;;9.13;5.22;;;;;;;;;;5023037;28;20044;-77
2023/05/12 00:44:59;;;;;;;7.10;4.95;;;;;;;;;;5013918;28;20040;-77
2023/05/12 00:47:25;;;;;;;6.88;4.95;;;;;;;;;;5023343;28;20020;-77
2023/05/12 00:49:50;;;;;;;8.77;5.20;;;;;;;;;;5047644;28;20485;-77
2023/05/12 00:52:16;;;;;;;7.13;4.43;;;;;;;;;;5044340;28;20025;-77
2023/05/12 00:54:42;;;;;;;6.93;4.40;;;;;;;;;;5023617;28;20392;-76
2023/05/12 00:57:08;;;;;;;7.03;4.28;;;;;;;;;;5046759;28;20477;-78
2023/05/12 00:59:34;;;;;;;5.80;3.50;;;;;;;;;;5022626;28;20488;-78
2023/05/12 01:01:59;;;;;;;6.63;3.47;;;;;;;;;;5041519;28;20028;-77
2023/05/12 01:04:25;;;;;;;7.70;3.13;;;;;;;;;;5046696;28;20128;-77
2023/05/12 01:06:55;;;;;;;5.45;3.35;;;;;;;;;;5045025;28;20033;-77
2023/05/12 01:09:20;;;;;;;7.38;3.72;;;;;;;;;;5043138;28;20025;-77
2023/05/12 01:11:46;;;;;;;7.53;3.92;;;;;;;;;;5046022;28;20086;-76
2023/05/12 01:14:11;;;;;;;4.95;3.50;;;;;;;;;;5051641;28;20102;-77
2023/05/12 01:16:58;;;;;;;6.68;3.85;;;;;;;;;;5039223;28;20107;-76
2023/05/12 01:19:31;;;;;;;10.45;3.83;;;;;;;;;;5044279;28;20363;-77
2023/05/12 01:21:57;;;;;;;6.80;3.80;;;;;;;;;;5043666;28;20017;-76
2023/05/12 01:24:26;;;;;;;6.95;3.20;;;;;;;;;;5011818;28;20358;-77
2023/05/12 01:26:51;;;;;;;6.90;3.40;;;;;;;;;;5026542;28;20474;-77
2023/05/12 01:29:17;;;;;;;6.60;3.13;;;;;;;;;;5029246;28;20029;-78
2023/05/12 01:31:43;;;;;;;6.10;3.42;;;;;;;;;;5025875;28;20029;-77
2023/05/12 01:34:14;;;;;;;6.47;3.17;;;;;;;;;;5042543;28;20108;-78
2023/05/12 01:36:40;;;;;;;4.85;3.20;;;;;;;;;;5043729;28;20036;-76
2023/05/12 01:39:05;;;;;;;6.18;3.40;;;;;;;;;;5044602;28;20029;-77
2023/05/12 01:41:30;;;;;;;6.43;3.30;;;;;;;;;;5032736;28;20040;-77
2023/05/12 01:43:55;;;;;;;5.53;2.90;;;;;;;;;;5031541;28;20685;-77
2023/05/12 01:46:21;;;;;;;7.00;3.10;;;;;;;;;;5027838;28;20096;-77
2023/05/12 01:48:46;;;;;;;8.65;2.97;;;;;;;;;;5024071;28;20389;-77
2023/05/12 01:51:12;;;;;;;5.05;2.97;;;;;;;;;;5051464;28;20485;-77
2023/05/12 01:53:37;;;;;;;4.93;2.83;;;;;;;;;;5050860;28;20481;-77
2023/05/12 01:56:02;;;;;;;5.50;2.95;;;;;;;;;;5029418;28;20069;-77
2023/05/12 01:58:28;;;;;;;6.05;2.80;;;;;;;;;;5044317;28;20029;-77
2023/05/12 02:00:53;;;;;;;4.20;2.80;;;;;;;;;;5036697;28;20044;-77
2023/05/12 02:03:18;;;;;;;3.45;2.22;;;;;;;;;;5025788;28;20059;-76
2023/05/12 02:05:44;;;;;;;4.13;2.50;;;;;;;;;;5039456;28;20470;-78
2023/05/12 02:08:09;;;;;;;4.70;2.47;;;;;;;;;;5046313;28;20484;-76
2023/05/12 02:10:35;;;;;;;5.07;2.65;;;;;;;;;;5040657;28;20024;-77
2023/05/12 02:13:00;;;;;;;8.05;2.42;;;;;;;;;;5029397;28;20080;-78
2023/05/12 02:15:25;;;;;;;5.90;2.60;;;;;;;;;;5044592;28;20029;-77
2023/05/12 02:17:53;;;;;;;4.10;2.10;;;;;;;;;;5050112;28;20546;-77
2023/05/12 02:20:18;;;;;;;4.65;2.00;;;;;;;;;;5025886;28;20600;-78
2023/05/12 02:22:43;;;;;;;3.60;2.10;;;;;;;;;;5046299;28;20017;-77
2023/05/12 02:25:09;;;;;;;3.15;1.90;;;;;;;;;;5028821;28;20434;-78
2023/05/12 02:27:34;;;;;;;3.15;1.90;;;;;;;;;;5028361;28;20607;-77
2023/05/12 02:29:59;;;;;;;2.72;1.55;;;;;;;;;;5044726;28;20064;-78
2023/05/12 02:32:27;;;;;;;3.42;1.80;;;;;;;;;;5051258;28;20400;-77
2023/05/12 02:34:54;;;;;;;3.70;1.83;;;;;;;;;;5049902;28;20021;-77
2023/05/12 02:37:19;;;;;;;3.58;1.75;;;;;;;;;;5027712;28;20397;-78
2023/05/12 02:39:45;;;;;;;3.78;2.00;;;;;;;;;;5038725;28;20032;-76
2023/05/12 02:42:10;;;;;;;3.80;1.70;;;;;;;;;;5046548;28;20021;-75
2023/05/12 02:44:35;;;;;;;3.60;1.90;;;;;;;;;;5045702;28;20481;-77
2023/05/12 02:47:01;;;;;;;2.78;1.70;;;;;;;;;;5025984;28;20033;-77
2023/05/12 02:49:26;;;;;;;3.97;1.83;;;;;;;;;;5024858;28;20036;-77
2023/05/12 02:51:53;;;;;;;2.60;1.52;;;;;;;;;;5042951;28;20021;-77
2023/05/12 02:54:19;;;;;;;3.47;1.88;;;;;;;;;;5030284;28;20052;-77
2023/05/12 02:56:44;;;;;;;4.60;2.08;;;;;;;;;;5020386;28;20483;-76
2023/05/12 02:59:09;;;;;;;3.05;1.80;;;;;;;;;;5047986;28;20667;-77
2023/05/12 03:01:35;;;;;;;3.17;1.85;;;;;;;;;;5043232;28;20029;-76
2023/05/12 03:04:00;;;;;;;3.55;1.95;;;;;;;;;;5047455;28;20029;-77
2023/05/12 03:06:25;;;;;;;3.58;1.60;;;;;;;;;;5049021;28;20428;-77
2023/05/12 03:08:51;;;;;;;3.40;2.00;;;;;;;;;;5044984;28;20021;-77
2023/05/12 03:11:16;;;;;;;3.28;2.10;;;;;;;;;;5041694;28;20061;-77
2023/05/12 03:13:41;;;;;;;3.97;2.20;;;;;;;;;;5030755;28;20029;-77
2023/05/12 03:16:07;;;;;;;5.53;2.60;;;;;;;;;;5043704;28;20029;-77
2023/05/12 03:18:32;;;;;;;4.18;2.40;;;;;;;;;;5048765;28;20392;-77
2023/05/12 03:20:57;;;;;;;5.85;2.72;;;;;;;;;;5045893;28;20028;-76
2023/05/12 03:23:23;;;;;;;5.60;2.40;;;;;;;;;;5046173;28;20017;-77
2023/05/12 03:25:48;;;;;;;6.32;2.80;;;;;;;;;;5047774;28;20584;-77
2023/05/12 03:28:14;;;;;;;5.65;3.00;;;;;;;;;;5045204;28;20079;-77
2023/05/12 03:30:39;;;;;;;5.28;2.70;;;;;;;;;;5024032;28;20035;-77
2023/05/12 03:33:04;;;;;;;6.47;3.50;;;;;;;;;;5041177;28;20025;-77
2023/05/12 03:35:30;;;;;;;7.82;3.25;;;;;;;;;;5031974;28;20435;-77
2023/05/12 03:37:55;;;;;;;5.63;2.97;;;;;;;;;;5044567;28;20066;-77
2023/05/12 03:40:20;;;;;;;6.43;3.40;;;;;;;;;;5047006;28;20025;-77
2023/05/12 03:42:46;;;;;;;7.72;3.63;;;;;;;;;;5029887;28;20424;-76
2023/05/12 03:45:11;;;;;;;7.15;3.65;;;;;;;;;;5011736;28;20485;-77
2023/05/12 03:47:39;;;;;;;6.47;3.80;;;;;;;;;;5043060;28;20488;-75
2023/05/12 03:50:05;;;;;;;7.70;3.95;;;;;;;;;;5042895;28;20044;-77
2023/05/12 03:52:30;;;;;;;6.90;3.50;;;;;;;;;;5042095;28;20040;-77
2023/05/12 03:54:56;;;;;;;7.82;4.13;;;;;;;;;;5026325;28;20029;-77
2023/05/12 03:57:21;;;;;;;8.48;4.05;;;;;;;;;;5044703;28;20025;-77
2023/05/12 03:59:46;;;;;;;8.48;4.18;;;;;;;;;;5045354;28;20025;-77
2023/05/12 04:02:12;;;;;;;8.63;4.78;;;;;;;;;;5048570;28;20033;-77
2023/05/12 04:04:37;;;;;;;9.73;5.15;;;;;;;;;;5015578;28;20037;-77
2023/05/12 04:07:03;;;;;;;11.43;4.97;;;;;;;;;;5040227;28;20025;-77
2023/05/12 04:09:31;;;;;;;9.93;5.20;;;;;;;;;;5043572;28;20033;-78
2023/05/12 04:11:57;;;;;;;9.15;5.53;;;;;;;;;;5045235;28;20029;-78
2023/05/12 04:14:23;;;;;;;10.20;6.10;;;;;;;;;;5026859;28;20029;-76
2023/05/12 04:16:48;;;;;;;10.00;5.78;;;;;;;;;;5028113;28;20024;-77
2023/05/12 04:19:13;;;;;;;11.23;6.32;;;;;;;;;;5046418;28;20132;-77
2023/05/12 04:21:39;;;;;;;11.00;6.10;;;;;;;;;;5024825;28;20056;-77
2023/05/12 04:24:04;;;;;;;11.40;6.00;;;;;;;;;;5041707;28;20036;-77
2023/05/12 04:26:30;;;;;;;10.30;5.60;;;;;;;;;;5023091;28;20119;-77
2023/05/12 04:28:55;;;;;;;11.18;6.47;;;;;;;;;;5025913;28;20059;-76
2023/05/12 04:31:20;;;;;;;12.82;6.20;;;;;;;;;;5050423;28;20453;-77
2023/05/12 04:33:46;;;;;;;13.50;7.32;;;;;;;;;;5029426;28;20416;-77
2023/05/12 04:36:12;;;;;;;12.82;6.60;;;;;;;;;;5049342;28;20037;-77
2023/05/12 04:38:39;;;;;;;11.85;6.88;;;;;;;;;;5037726;28;20091;-77
2023/05/12 04:41:05;;;;;;;12.32;7.13;;;;;;;;;;5048740;28;20362;-77
2023/05/12 04:43:30;;;;;;;11.68;6.43;;;;;;;;;;5047137;28;20040;-77
2023/05/12 04:45:55;;;;;;;13.38;7.00;;;;;;;;;;5049687;28;20613;-76
2023/05/12 04:48:21;;;;;;;14.32;7.05;;;;;;;;;;5054572;28;20032;-76
2023/05/12 04:50:47;;;;;;;12.50;6.97;;;;;;;;;;5032427;28;20090;-77
2023/05/12 04:53:15;;;;;;;12.90;7.38;;;;;;;;;;5028674;28;20393;-77
2023/05/12 04:55:41;;;;;;;12.50;6.65;;;;;;;;;;5052428;28;20036;-77
2023/05/12 04:58:06;;;;;;;11.57;7.13;;;;;;;;;;5029743;28;20029;-77
2023/05/12 05:00:32;;;;;;;12.15;6.93;;;;;;;;;;5043126;28;20031;-76
2023/05/12 05:02:57;;;;;;;13.32;7.75;;;;;;;;;;5045620;28;20021;-77
2023/05/12 05:05:22;;;;;;;13.20;7.65;;;;;;;;;;5037484;28;20021;-77
2023/05/12 05:07:48;;;;;;;15.88;7.78;;;;;;;;;;5038603;28;20024;-77
2023/05/12 05:10:13;;;;;;;12.48;7.95;;;;;;;;;;5031727;28;20047;-77
2023/05/12 05:12:39;;;;;;;12.35;7.85;;;;;;;;;;5051979;28;20029;-77
2023/05/12 05:15:05;;;;;;;13.70;7.97;;;;;;;;;;5051441;28;20107;-76
2023/05/12 05:17:30;;;;;;;12.90;7.80;;;;;;;;;;5029299;28;20119;-77
2023/05/12 05:19:55;;;;;;;13.50;8.00;;;;;;;;;;5044017;28;20032;-77
2023/05/12 05:22:21;;;;;;;17.17;8.70;;;;;;;;;;5043434;28;20016;-77
2023/05/12 05:24:46;;;;;;;14.65;8.25;;;;;;;;;;5049368;28;20112;-77
2023/05/12 05:27:12;;;;;;;15.25;8.20;;;;;;;;;;5049978;28;20099;-77
2023/05/12 05:29:38;;;;;;;14.50;8.68;;;;;;;;;;5048970;28;20036;-77
2023/05/12 05:32:03;;;;;;;17.85;8.88;;;;;;;;;;5029589;28;20017;-76
2023/05/12 05:34:29;;;;;;;17.15;8.80;;;;;;;;;;5024162;28;20446;-77
2023/05/12 05:36:54;;;;;;;15.48;8.82;;;;;;;;;;5050694;28;20052;-77
2023/05/12 05:39:19;;;;;;;16.20;8.90;;;;;;;;;;5029783;28;20036;-76
2023/05/12 05:41:45;;;;;;;15.35;8.90;;;;;;;;;;5027863;28;20509;-77
2023/05/12 05:44:10;;;;;;;15.85;9.20;;;;;;;;;;5040391;28;20032;-76
2023/05/12 05:46:35;;;;;;;18.65;9.90;;;;;;;;;;5041622;28;20093;-77
2023/05/12 05:49:01;;;;;;;16.33;9.68;;;;;;;;;;5040714;28;20507;-77
2023/05/12 05:51:26;;;;;;;15.13;9.63;;;;;;;;;;5043235;28;20135;-77
2023/05/12 05:53:52;;;;;;;15.77;9.07;;;;;;;;;;5042627;28;20034;-77
2023/05/12 05:56:17;;;;;;;20.02;10.88;;;;;;;;;;5049589;28;20465;-77
2023/05/12 05:58:42;;;;;;;18.25;11.45;;;;;;;;;;5039408;28;20401;-77
2023/05/12 06:01:07;;;;;;;18.88;11.82;;;;;;;;;;5029027;28;20466;-77
2023/05/12 06:03:33;;;;;;;21.73;11.38;;;;;;;;;;5038542;28;20371;-77
2023/05/12 06:05:58;;;;;;;19.38;11.20;;;;;;;;;;5050529;28;20454;-77
2023/05/12 06:08:24;;;;;;;20.00;11.95;;;;;;;;;;5038976;28;20024;-77
2023/05/12 06:10:49;;;;;;;19.33;11.30;;;;;;;;;;5044596;28;20036;-78
2023/05/12 06:13:14;;;;;;;22.95;12.52;;;;;;;;;;5052146;28;20107;-77
2023/05/12 06:15:40;;;;;;;21.10;12.27;;;;;;;;;;5046715;28;20583;-77
2023/05/12 06:18:05;;;;;;;18.80;11.98;;;;;;;;;;5046449;28;20512;-77
2023/05/12 06:20:31;;;;;;;20.13;12.18;;;;;;;;;;5048450;28;20040;-77
2023/05/12 06:22:56;;;;;;;21.85;11.05;;;;;;;;;;5034157;28;20028;-76
2023/05/12 06:25:22;;;;;;;19.85;12.15;;;;;;;;;;5039895;28;20104;-77
2023/05/12 06:27:50;;;;;;;21.60;12.45;;;;;;;;;;5026669;28;20029;-77
2023/05/12 06:30:16;;;;;;;20.35;12.32;;;;;;;;;;5041639;28;20489;-77
2023/05/12 06:32:41;;;;;;;21.20;11.73;;;;;;;;;;5045411;28;20064;-77
2023/05/12 06:35:07;;;;;;;21.65;12.68;;;;;;;;;;5050762;28;20104;-77
2023/05/12 06:37:32;;;;;;;22.30;12.32;;;;;;;;;;5048827;28;20021;-78
2023/05/12 06:39:57;;;;;;;19.65;12.07;;;;;;;;;;5028052;28;20028;-77
2023/05/12 06:42:23;;;;;;;18.77;11.40;;;;;;;;;;5025637;28;20044;-77
2023/05/12 06:44:48;;;;;;;20.25;12.18;;;;;;;;;;5048684;28;20100;-77
2023/05/12 06:47:13;;;;;;;22.95;12.25;;;;;;;;;;5049031;28;20485;-78
2023/05/12 06:49:39;;;;;;;22.35;12.15;;;;;;;;;;5046856;28;20036;-77
2023/05/12 06:52:05;;;;;;;21.95;12.50;;;;;;;;;;5032910;28;20024;-77
2023/05/12 06:54:31;;;;;;;22.02;12.20;;;;;;;;;;5031586;28;20044;-77
2023/05/12 06:56:56;;;;;;;20.75;12.50;;;;;;;;;;5049239;28;20025;-77
2023/05/12 06:59:22;;;;;;;21.35;11.93;;;;;;;;;;5029380;28;20024;-77
2023/05/12 07:01:47;;;;;;;21.63;12.13;;;;;;;;;;5044033;28;20025;-77
2023/05/12 07:04:12;;;;;;;19.15;12.00;;;;;;;;;;5048544;28;20037;-78
2023/05/12 07:06:38;;;;;;;20.23;12.70;;;;;;;;;;5048082;28;20028;-76
2023/05/12 07:09:03;;;;;;;22.50;11.93;;;;;;;;;;5029242;28;20025;-77
2023/05/12 07:11:29;;;;;;;16.00;10.80;;;;;;;;;;5027365;28;20128;-77
2023/05/12 07:13:54;;;;;;;18.95;11.50;;;;;;;;;;5045921;28;20412;-77
2023/05/12 07:16:20;;;;;;;17.30;10.93;;;;;;;;;;5039899;28;20024;-77
2023/05/12 07:18:45;;;;;;;19.70;11.20;;;;;;;;;;5034317;28;20117;-76
2023/05/12 07:21:12;;;;;;;20.63;11.45;;;;;;;;;;5048094;28;20090;-77
2023/05/12 07:23:37;;;;;;;16.20;10.75;;;;;;;;;;5046372;28;20498;-77
2023/05/12 07:26:04;;;;;;;18.45;10.77;;;;;;;;;;5042597;28;20067;-78
2023/05/12 07:28:31;;;;;;;14.40;9.98;;;;;;;;;;5045165;28;20113;-76
2023/05/12 07:30:58;;;;;;;14.63;9.48;;;;;;;;;;5041245;28;20028;-76
2023/05/12 07:33:24;;;;;;;14.45;9.30;;;;;;;;;;5046692;28;20021;-76
2023/05/12 07:35:49;;;;;;;11.15;8.32;;;;;;;;;;5042528;28;20033;-77
2023/05/12 07:38:14;;;;;;;11.73;7.40;;;;;;;;;;5043480;28;20041;-77
2023/05/12 07:40:40;;;;;;;11.15;7.65;;;;;;;;;;5043194;28;20032;-76
2023/05/12 07:43:05;;;;;;;12.63;7.80;;;;;;;;;;5042234;28;20390;-77
2023/05/12 07:45:30;;;;;;;10.50;7.18;;;;;;;;;;5045751;28;20116;-76
2023/05/12 07:47:56;;;;;;;9.93;6.50;;;;;;;;;;5049513;28;20060;-77
2023/05/12 07:50:21;;;;;;;9.40;6.30;;;;;;;;;;5048356;28;20080;-78
2023/05/12 07:52:51;;;;;;;8.65;6.00;;;;;;;;;;5047925;28;20033;-78
2023/05/12 07:55:17;;;;;;;7.80;5.70;;;;;;;;;;5043755;28;20034;-77
2023/05/12 07:57:43;;;;;;;7.32;5.20;;;;;;;;;;5034011;28;20432;-77
2023/05/12 08:00:10;;;;;;;8.48;5.65;;;;;;;;;;5046836;28;20025;-76
2023/05/12 08:02:38;;;;;;;8.00;5.88;;;;;;;;;;5049595;28;20025;-77
2023/05/12 08:05:05;;;;;;;7.50;5.50;;;;;;;;;;5046422;28;20519;-77
2023/05/12 08:07:30;;;;;;;8.52;5.43;;;;;;;;;;5030260;28;20041;-77
2023/05/12 08:09:56;;;;;;;7.60;5.22;;;;;;;;;;5039741;28;20043;-77
2023/05/12 08:12:21;;;;;;;7.85;5.63;;;;;;;;;;5027078;28;20040;-77
2023/05/12 08:14:46;;;;;;;7.05;4.88;;;;;;;;;;5052985;28;20043;-77
2023/05/12 08:17:12;;;;;;;7.55;5.10;;;;;;;;;;5052146;28;21734;-77
2023/05/12 08:19:37;;;;;;;7.60;4.50;;;;;;;;;;5052936;28;20033;-77
2023/05/12 08:22:03;;;;;;;7.75;4.45;;;;;;;;;;5050333;28;20056;-77
2023/05/12 08:24:29;;;;;;;6.78;4.57;;;;;;;;;;5058703;28;20107;-77
2023/05/12 08:26:54;;;;;;;6.97;4.47;;;;;;;;;;5055201;28;20033;-78
2023/05/12 08:29:19;;;;;;;6.13;4.75;;;;;;;;;;5045127;28;20457;-77
2023/05/12 08:31:45;;;;;;;7.20;4.53;;;;;;;;;;5037004;28;20384;-77
2023/05/12 08:34:10;;;;;;;6.32;4.43;;;;;;;;;;5049290;28;20025;-77
2023/05/12 08:36:36;;;;;;;6.18;4.15;;;;;;;;;;5036778;28;20033;-77
2023/05/12 08:39:03;;;;;;;7.40;4.25;;;;;;;;;;5034273;28;20021;-77
2023/05/12 08:41:55;;;;;;;9.80;3.72;;;;;;;;;;5035294;28;20358;-77
2023/05/12 08:44:22;;;;;;;5.95;3.88;;;;;;;;;;5049185;28;20082;-78
2023/05/12 08:46:47;;;;;;;5.28;3.65;;;;;;;;;;5053750;28;20044;-78
2023/05/12 08:49:19;;;;;;;6.20;3.60;;;;;;;;;;5052795;28;20021;-78
2023/05/12 08:51:46;;;;;;;5.72;4.32;;;;;;;;;;5054069;28;20496;-77
2023/05/12 08:54:12;;;;;;;5.90;4.32;;;;;;;;;;5033764;28;20053;-77
2023/05/12 08:56:40;;;;;;;5.80;3.55;;;;;;;;;;5052587;28;20037;-77
2023/05/12 08:59:08;;;;;;;5.57;3.90;;;;;;;;;;5050330;28;20032;-77
2023/05/12 09:01:37;;;;;;;6.50;3.72;;;;;;;;;;5022938;28;20029;-77
2023/05/12 09:04:05;;;;;;;6.93;3.70;;;;;;;;;;5049786;28;20029;-78
2023/05/12 09:06:32;;;;;;;5.35;3.50;;;;;;;;;;5029584;28;20060;-77
2023/05/12 09:08:57;;;;;;;4.90;3.42;;;;;;;;;;5045964;28;20535;-77
2023/05/12 09:11:22;;;;;;;5.65;3.30;;;;;;;;;;5049738;28;20021;-77
2023/05/12 09:14:07;;;;;;;5.50;3.47;;;;;;;;;;5034671;28;20108;-76
2023/05/12 09:16:38;;;;;;;4.97;3.13;;;;;;;;;;5042470;28;20032;-77
2023/05/12 09:19:04;;;;;;;4.80;3.30;;;;;;;;;;5051675;28;20034;-78
2023/05/12 09:21:30;;;;;;;5.45;3.88;;;;;;;;;;5044796;28;20037;-77
2023/05/12 09:23:58;;;;;;;6.22;3.22;;;;;;;;;;5040786;28;20045;-78
2023/05/12 09:26:25;;;;;;;4.95;3.55;;;;;;;;;;5028997;28;20072;-77
2023/05/12 09:28:55;;;;;;;4.90;3.50;;;;;;;;;;5040622;28;20029;-77
2023/05/12 09:31:21;;;;;;;6.28;3.40;;;;;;;;;;5027347;28;20163;-77
2023/05/12 09:33:48;;;;;;;5.40;3.90;;;;;;;;;;5047130;28;20404;-77
2023/05/12 09:36:21;;;;;;;5.70;3.20;;;;;;;;;;5045966;28;20036;-78
2023/05/12 09:39:08;;;;;;;4.45;3.13;;;;;;;;;;5046809;28;20025;-78
2023/05/12 09:41:38;;;;;;;4.35;3.20;;;;;;;;;;5041575;28;20075;-78
2023/05/12 09:44:04;;;;;;;4.80;3.25;;;;;;;;;;5042907;28;20029;-77
2023/05/12 09:46:30;;;;;;;5.50;3.10;;;;;;;;;;5030593;28;20029;-77
2023/05/12 09:48:56;;;;;;;7.07;3.20;;;;;;;;;;5026001;28;20077;-77
2023/05/12 09:51:22;;;;;;;6.05;3.15;;;;;;;;;;5027677;28;20021;-77
2023/05/12 09:53:48;;;;;;;4.18;3.20;;;;;;;;;;5048546;28;20777;-77
2023/05/12 09:56:15;;;;;;;4.75;3.58;;;;;;;;;;5050518;28;20021;-77
2023/05/12 09:58:46;;;;;;;5.63;3.50;;;;;;;;;;5043521;28;20041;-77
2023/05/12 10:01:13;;;;;;;4.63;3.03;;;;;;;;;;5053831;28;20017;-78
2023/05/12 10:03:44;;;;;;;4.30;2.88;;;;;;;;;;5043330;28;20053;-77
2023/05/12 10:06:13;;;;;;;4.20;3.10;;;;;;;;;;5027019;28;20105;-78
2023/05/12 10:09:07;;;;;;;3.75;2.50;;;;;;;;;;5049787;28;20481;-78
2023/05/12 10:11:33;;;;;;;4.97;2.42;;;;;;;;;;5032960;28;20048;-78
2023/05/12 10:13:59;;;;;;;3.40;2.35;;;;;;;;;;5029043;28;20040;-77
2023/05/12 10:16:28;;;;;;;3.65;2.30;;;;;;;;;;5044215;28;20033;-78
2023/05/12 10:18:55;;;;;;;5.35;2.53;;;;;;;;;;5044911;28;20025;-78
2023/05/12 10:21:23;;;;;;;4.25;2.75;;;;;;;;;;5026475;28;20021;-77
2023/05/12 10:23:49;;;;;;;4.47;2.50;;;;;;;;;;5047022;28;20472;-77
2023/05/12 10:26:16;;;;;;;3.45;2.40;;;;;;;;;;5045988;28;20024;-77
2023/05/12 10:28:42;;;;;;;4.60;2.47;;;;;;;;;;5049419;28;20025;-77
2023/05/12 10:31:09;;;;;;;5.78;2.70;;;;;;;;;;5046464;28;20155;-78
2023/05/12 10:33:34;;;;;;;4.82;2.58;;;;;;;;;;5049913;28;20473;-78
2023/05/12 10:36:00;;;;;;;4.28;2.25;;;;;;;;;;5042144;28;20040;-78
2023/05/12 10:38:25;;;;;;;4.40;2.47;;;;;;;;;;5043683;28;20021;-78
2023/05/12 10:41:09;;;;;;;3.35;2.20;;;;;;;;;;5041625;28;20115;-77
2023/05/12 10:43:41;;;;;;;3.00;2.20;;;;;;;;;;5047550;28;20025;-77
2023/05/12 10:46:07;;;;;;;3.20;2.10;;;;;;;;;;5044001;28;20028;-78
2023/05/12 10:48:32;;;;;;;3.25;2.25;;;;;;;;;;5025763;28;20939;-77
2023/05/12 10:51:09;;;;;;;3.35;2.38;;;;;;;;;;5044030;28;20029;-77
2023/05/12 10:53:36;;;;;;;4.20;2.20;;;;;;;;;;5042637;28;20028;-78
2023/05/12 10:56:04;;;;;;;3.95;2.25;;;;;;;;;;5026489;28;20070;-77
2023/05/12 10:58:30;;;;;;;3.25;2.10;;;;;;;;;;5044034;28;20021;-76
2023/05/12 11:01:04;;;;;;;4.22;2.33;;;;;;;;;;5050639;28;20385;-78
2023/05/12 11:03:30;;;;;;;3.50;2.15;;;;;;;;;;5042468;28;20032;-77
2023/05/12 11:06:04;;;;;;;3.22;2.35;;;;;;;;;;5037465;28;20512;-78
2023/05/12 11:08:33;;;;;;;3.95;2.10;;;;;;;;;;5041032;28;20044;-78
2023/05/12 11:11:00;;;;;;;3.75;1.90;;;;;;;;;;5037599;28;20033;-78
2023/05/12 11:13:27;;;;;;;3.22;2.00;;;;;;;;;;5024704;28;20404;-77
2023/05/12 11:15:55;;;;;;;2.63;1.98;;;;;;;;;;5042574;28;20544;-78
2023/05/12 11:18:20;;;;;;;6.10;1.90;;;;;;;;;;5035902;28;20024;-77
2023/05/12 11:20:46;;;;;;;2.97;1.77;;;;;;;;;;5047128;28;20029;-77
2023/05/12 11:23:23;;;;;;;3.25;1.73;;;;;;;;;;5040054;28;20028;-78
2023/05/12 11:25:49;;;;;;;3.22;1.70;;;;;;;;;;5039951;28;20182;-79
2023/05/12 11:28:14;;;;;;;2.97;1.77;;;;;;;;;;5044038;28;20100;-78
2023/05/12 11:30:48;;;;;;;6.20;2.10;;;;;;;;;;5042800;28;20519;-76
2023/05/12 11:33:19;;;;;;;3.88;2.00;;;;;;;;;;5040992;28;20076;-77
2023/05/12 11:35:45;;;;;;;5.70;2.13;;;;;;;;;;5042297;28;20120;-75
2023/05/12 11:38:17;;;;;;;2.97;2.10;;;;;;;;;;5050431;28;20491;-75
2023/05/12 11:40:43;;;;;;;3.70;2.30;;;;;;;;;;5027981;28;20031;-76
2023/05/12 11:43:10;;;;;;;3.30;2.10;;;;;;;;;;5033039;28;20385;-76
2023/05/12 11:45:35;;;;;;;6.07;2.47;;;;;;;;;;5043168;28;21567;-76
2023/05/12 11:48:12;;;;;;;3.42;2.35;;;;;;;;;;5044946;28;20120;-75
2023/05/12 11:50:39;;;;;;;7.13;2.40;;;;;;;;;;5042518;28;20412;-76
2023/05/12 11:53:09;;;;;;;2.70;2.13;;;;;;;;;;5025569;28;20486;-76
2023/05/12 11:55:34;;;;;;;3.60;2.40;;;;;;;;;;5026682;28;20366;-79
2023/05/12 11:58:01;;;;;;;3.85;2.40;;;;;;;;;;5047865;28;20048;-76
2023/05/12 12:00:32;;;;;;;4.43;2.72;;;;;;;;;;5034024;28;20485;-76
2023/05/12 12:03:08;;;;;;;4.68;2.20;;;;;;;;;;5034721;28;20166;-76
2023/05/12 12:05:34;;;;;;;3.55;2.33;;;;;;;;;;5042611;28;20119;-76
2023/05/12 12:08:13;;;;;;;3.70;2.90;;;;;;;;;;5039932;28;20170;-76
2023/05/12 12:10:43;;;;;;;5.07;2.90;;;;;;;;;;5045463;28;20096;-75
2023/05/12 12:13:08;;;;;;;3.47;2.38;;;;;;;;;;5034914;28;20515;-76
2023/05/12 12:15:34;;;;;;;6.82;3.05;;;;;;;;;;5044619;28;20030;-75
2023/05/12 12:17:59;;;;;;;5.50;3.40;;;;;;;;;;5037476;28;20503;-75
2023/05/12 12:20:25;;;;;;;3.40;2.50;;;;;;;;;;5046543;28;20058;-76
2023/05/12 12:22:51;;;;;;;4.75;2.90;;;;;;;;;;5035650;28;20029;-75
2023/05/12 12:25:18;;;;;;;5.97;2.72;;;;;;;;;;5052386;28;20032;-76
2023/05/12 12:27:43;;;;;;;5.72;2.63;;;;;;;;;;5049307;28;20033;-75
2023/05/12 12:30:09;;;;;;;3.90;2.53;;;;;;;;;;5050012;28;20425;-75
2023/05/12 12:32:34;;;;;;;5.25;2.80;;;;;;;;;;5049711;28;20104;-76
2023/05/12 12:35:02;;;;;;;5.78;3.45;;;;;;;;;;5054749;28;20037;-76
2023/05/12 12:37:27;;;;;;;4.20;2.78;;;;;;;;;;5051143;28;20043;-76
2023/05/12 12:39:53;;;;;;;4.22;2.72;;;;;;;;;;5052520;28;20033;-75
2023/05/12 12:42:18;;;;;;;3.40;2.60;;;;;;;;;;5039019;28;20400;-75
2023/05/12 12:44:44;;;;;;;4.10;2.83;;;;;;;;;;5053404;28;20122;-76
2023/05/12 12:47:10;;;;;;;3.17;2.25;;;;;;;;;;5037832;28;20035;-76
2023/05/12 12:49:35;;;;;;;4.15;2.70;;;;;;;;;;5049251;28;20032;-75
2023/05/12 12:52:01;;;;;;;4.25;2.80;;;;;;;;;;5062021;28;20469;-75
2023/05/12 12:54:27;;;;;;;4.30;2.90;;;;;;;;;;5052567;28;20457;-75
2023/05/12 12:56:54;;;;;;;6.13;2.70;;;;;;;;;;5046811;28;20029;-75
2023/05/12 12:59:19;;;;;;;3.40;2.50;;;;;;;;;;5030899;28;20025;-75
2023/05/12 13:01:45;;;;;;;4.22;2.70;;;;;;;;;;5022806;28;20897;-76
2023/05/12 13:04:10;;;;;;;5.40;3.13;;;;;;;;;;5027436;28;20461;-76
2023/05/12 13:06:35;;;;;;;5.05;2.92;;;;;;;;;;5040801;28;20033;-75
2023/05/12 13:09:01;;;;;;;4.75;3.10;;;;;;;;;;5024200;28;20047;-75
2023/05/12 13:11:26;;;;;;;4.20;3.20;;;;;;;;;;5024927;28;20032;-75
2023/05/12 13:13:52;;;;;;;6.43;3.05;;;;;;;;;;5048397;28;20435;-76
2023/05/12 13:16:17;;;;;;;5.03;3.60;;;;;;;;;;5046769;28;20083;-75
2023/05/12 13:18:44;;;;;;;4.57;3.13;;;;;;;;;;5046696;28;20363;-75
2023/05/12 13:21:10;;;;;;;5.80;2.92;;;;;;;;;;5048125;28;20028;-75
2023/05/12 13:23:35;;;;;;;4.90;3.17;;;;;;;;;;5042193;28;20037;-75
2023/05/12 13:26:00;;;;;;;4.10;2.88;;;;;;;;;;5048669;28;20032;-75
2023/05/12 13:28:26;;;;;;;3.97;2.60;;;;;;;;;;5029325;28;20032;-75
2023/05/12 13:30:51;;;;;;;3.20;2.65;;;;;;;;;;5027639;28;20033;-75
2023/05/12 13:33:17;;;;;;;5.13;2.70;;;;;;;;;;5021204;28;20037;-75
2023/05/12 13:35:42;;;;;;;4.10;2.88;;;;;;;;;;5046415;28;20033;-74
2023/05/12 13:38:09;;;;;;;3.88;2.72;;;;;;;;;;5054751;28;20039;-73
2023/05/12 13:40:35;;;;;;;3.90;2.65;;;;;;;;;;5042606;28;20033;-72
2023/05/12 13:43:00;;;;;;;7.38;2.83;;;;;;;;;;5047449;28;20040;-76
2023/05/12 13:45:26;;;;;;;5.18;2.60;;;;;;;;;;5043185;28;20052;-73
2023/05/12 13:47:51;;;;;;;3.50;2.75;;;;;;;;;;5049956;28;20040;-74
2023/05/12 13:50:16;;;;;;;3.72;2.45;;;;;;;;;;5044405;28;20035;-73
2023/05/12 13:52:42;;;;;;;4.28;2.95;;;;;;;;;;5021657;28;20037;-73
2023/05/12 13:55:08;;;;;;;3.90;2.80;;;;;;;;;;5027030;28;20408;-73
2023/05/12 13:57:34;;;;;;;4.55;2.80;;;;;;;;;;5046255;28;20064;-74
2023/05/12 13:59:59;;;;;;;4.40;3.20;;;;;;;;;;5029223;28;20526;-73
2023/05/12 14:02:24;;;;;;;3.90;2.80;;;;;;;;;;5038982;28;20032;-73
2023/05/12 14:04:50;;;;;;;4.32;3.17;;;;;;;;;;5038625;28;20127;-73
2023/05/12 14:07:18;;;;;;;4.03;3.00;;;;;;;;;;5044798;28;20036;-74
2023/05/12 14:09:43;;;;;;;6.40;3.40;;;;;;;;;;5041271;28;20025;-73
2023/05/12 14:12:09;;;;;;;3.60;2.70;;;;;;;;;;5049270;28;20021;-73
2023/05/12 14:14:35;;;;;;;4.57;2.90;;;;;;;;;;5030496;28;20440;-73
2023/05/12 14:17:00;;;;;;;4.35;2.95;;;;;;;;;;5023044;28;20032;-73
2023/05/12 14:19:25;;;;;;;3.75;2.72;;;;;;;;;;5045296;28;20029;-75
2023/05/12 14:21:51;;;;;;;7.95;3.10;;;;;;;;;;5042454;28;20060;-75
2023/05/12 14:24:16;;;;;;;4.78;3.13;;;;;;;;;;5042583;28;20087;-73
2023/05/12 14:26:42;;;;;;;4.80;3.20;;;;;;;;;;5029610;28;20083;-73
2023/05/12 14:29:07;;;;;;;4.32;2.95;;;;;;;;;;5042118;28;20033;-73
2023/05/12 14:31:33;;;;;;;4.32;3.10;;;;;;;;;;5038020;28;20065;-74
2023/05/12 14:33:58;;;;;;;4.45;3.20;;;;;;;;;;5047030;28;20025;-73